Time;durP1;ratioP1;P1;durP2;ratioP2;P2;SDS_P1;SDS_P2;PMS_P1;PMS_P2;Temp;Humidity;BMP_temperature;BMP_pressure;BME280_temperature;BME280_humidity;BME280_pressure;Samples;Min_cycle;Max_cycle;Signal;HPM_P1;HPM_P2
2022/09/10 00:01:37;;;;;;;81.95;34.47;;;13.90;99.90;;;;;;5055590;28;20482;-76
2022/09/10 00:04:14;;;;;;;90.72;35.13;;;13.90;99.90;;;;;;5074900;28;20044;-76
2022/09/10 00:06:42;;;;;;;83.68;35.17;;;13.80;99.90;;;;;;5076209;28;20056;-75
2022/09/10 00:09:11;;;;;;;80.88;36.65;;;13.90;99.90;;;;;;5060964;28;20059;-76
2022/09/10 00:11:40;;;;;;;87.10;35.63;;;13.80;99.90;;;;;;5078692;28;20459;-76
2022/09/10 00:14:14;;;;;;;92.18;37.20;;;13.90;99.90;;;;;;5077223;28;20375;-76
2022/09/10 00:16:41;;;;;;;93.50;36.47;;;13.70;99.90;;;;;;5078706;28;20044;-76
2022/09/10 00:19:09;;;;;;;88.85;37.92;;;13.80;99.90;;;;;;5077603;28;20048;-76
2022/09/10 00:21:36;;;;;;;99.40;38.80;;;13.80;99.90;;;;;;5077451;28;20056;-76
2022/09/10 00:24:04;;;;;;;92.18;37.55;;;13.70;99.90;;;;;;5078335;28;20041;-76
2022/09/10 00:26:37;;;;;;;94.75;40.40;;;13.70;99.90;;;;;;5078344;28;20048;-76
2022/09/10 00:29:08;;;;;;;109.72;42.35;;;13.70;99.90;;;;;;5059523;28;20045;-76
2022/09/10 00:31:36;;;;;;;99.60;40.65;;;13.70;99.90;;;;;;5044318;28;20344;-76
2022/09/10 00:34:04;;;;;;;114.88;41.95;;;13.70;99.90;;;;;;5077185;28;20044;-76
2022/09/10 00:36:35;;;;;;;98.93;41.47;;;13.60;99.90;;;;;;5060631;28;20037;-76
2022/09/10 00:39:07;;;;;;;106.63;41.75;;;13.70;99.90;;;;;;5077994;28;20040;-75
2022/09/10 00:41:36;;;;;;;105.85;42.17;;;13.70;99.90;;;;;;5076901;28;20450;-76
2022/09/10 00:44:06;;;;;;;114.20;42.67;;;13.70;99.90;;;;;;5078335;28;20059;-76
2022/09/10 00:46:47;;;;;;;116.95;43.58;;;13.60;99.90;;;;;;5071966;28;20049;-76
2022/09/10 00:49:36;;;;;;;125.53;46.00;;;13.70;99.90;;;;;;5057639;28;20155;-76
2022/09/10 00:52:05;;;;;;;130.95;47.20;;;13.60;99.90;;;;;;5040057;28;20041;-76
2022/09/10 00:54:34;;;;;;;126.53;45.67;;;13.60;99.90;;;;;;5056523;28;20045;-75
2022/09/10 00:57:06;;;;;;;123.38;46.58;;;13.60;99.90;;;;;;5057457;28;20044;-75
2022/09/10 00:59:35;;;;;;;123.97;46.55;;;13.60;99.90;;;;;;5040108;28;20375;-75
2022/09/10 01:02:02;;;;;;;130.15;48.45;;;13.60;99.90;;;;;;5056261;28;20060;-75
2022/09/10 01:04:31;;;;;;;126.38;46.15;;;13.60;99.90;;;;;;5057546;28;20053;-75
2022/09/10 01:06:59;;;;;;;;;;;13.60;99.90;;;;;;5039232;28;20396;-76
2022/09/10 01:09:27;;;;;;;119.40;46.15;;;13.60;99.90;;;;;;5057331;28;19921;-76
2022/09/10 01:12:22;;;;;;;124.95;48.22;;;13.60;99.90;;;;;;5039689;28;20037;-75
2022/09/10 01:15:21;;;;;;;119.18;44.35;;;13.60;99.90;;;;;;5022486;28;20045;-76
2022/09/10 01:17:51;;;;;;;121.30;45.33;;;13.60;99.90;;;;;;5039340;28;20045;-76
2022/09/10 01:20:56;;;;;;;120.22;45.33;;;13.50;99.90;;;;;;5038694;28;20341;-75
2022/09/10 01:23:58;;;;;;;115.50;44.83;;;13.50;99.90;;;;;;5057018;28;20053;-75
2022/09/10 01:26:41;;;;;;;128.43;46.20;;;13.50;99.90;;;;;;5057260;28;20060;-75
2022/09/10 01:29:12;;;;;;;119.13;44.85;;;13.50;99.90;;;;;;5039528;28;20049;-75
2022/09/10 01:31:59;;;;;;;111.50;43.55;;;13.40;99.90;;;;;;5023471;28;20088;-75
2022/09/10 01:34:41;;;;;;;100.13;42.13;;;13.40;99.90;;;;;;5021835;28;20049;-75
2022/09/10 01:37:15;;;;;;;112.20;43.80;;;13.30;99.90;;;;;;5039398;28;20048;-76
2022/09/10 01:39:43;;;;;;;113.85;44.47;;;13.30;99.90;;;;;;5039777;28;20037;-76
2022/09/10 01:42:11;;;;;;;120.63;45.00;;;13.30;99.90;;;;;;5038379;28;20056;-76
2022/09/10 01:44:49;;;;;;;113.72;45.05;;;13.30;99.90;;;;;;5056855;28;20067;-76
2022/09/10 01:47:26;;;;;;;109.55;43.95;;;13.30;99.90;;;;;;5050242;28;20053;-76
2022/09/10 01:50:20;;;;;;;104.95;41.63;;;13.20;99.90;;;;;;5059232;28;20053;-76
2022/09/10 01:53:21;;;;;;;109.70;44.42;;;13.20;99.90;;;;;;5059045;28;20055;-76
2022/09/10 01:56:02;;;;;;;107.15;42.03;;;13.20;99.90;;;;;;5042386;28;20044;-75
2022/09/10 01:58:41;;;;;;;124.53;45.35;;;13.20;99.90;;;;;;5058933;28;20150;-75
2022/09/10 02:01:25;;;;;;;112.70;44.55;;;13.10;99.90;;;;;;5058151;28;20493;-76
2022/09/10 02:03:58;;;;;;;117.30;44.40;;;13.10;99.90;;;;;;5076198;28;20051;-76
2022/09/10 02:06:29;;;;;;;113.50;45.10;;;13.10;99.90;;;;;;5058781;28;20037;-76
2022/09/10 02:09:00;;;;;;;119.18;46.08;;;13.10;99.90;;;;;;5057579;28;20041;-75
2022/09/10 02:11:30;;;;;;;134.18;46.80;;;13.10;99.90;;;;;;5059053;28;20044;-76
2022/09/10 02:14:01;;;;;;;127.13;45.10;;;13.20;99.90;;;;;;5057613;28;20055;-76
2022/09/10 02:16:46;;;;;;;106.55;43.25;;;13.00;99.90;;;;;;5058483;28;20047;-75
2022/09/10 02:19:15;;;;;;;123.90;47.95;;;13.00;99.90;;;;;;5042003;28;20455;-76
2022/09/10 02:21:43;;;;;;;131.82;47.63;;;13.00;99.90;;;;;;5057530;28;20048;-76
2022/09/10 02:24:11;;;;;;;125.95;47.10;;;13.00;99.90;;;;;;5076070;28;20040;-76
2022/09/10 02:26:43;;;;;;;124.43;47.42;;;13.00;99.90;;;;;;5075855;28;20048;-76
2022/09/10 02:29:14;;;;;;;125.53;49.85;;;13.00;99.90;;;;;;5057983;28;20060;-75
2022/09/10 02:31:43;;;;;;;123.53;47.75;;;13.00;99.90;;;;;;5075647;28;20063;-76
2022/09/10 02:34:14;;;;;;;132.70;48.47;;;12.90;99.90;;;;;;5041252;28;20044;-75
2022/09/10 02:36:45;;;;;;;123.05;47.15;;;13.00;99.90;;;;;;5058340;28;20033;-76
2022/09/10 02:39:14;;;;;;;149.27;49.17;;;12.90;99.90;;;;;;5041692;28;20052;-76
2022/09/10 02:41:41;;;;;;;132.65;49.53;;;12.90;99.90;;;;;;5040577;28;20051;-76
2022/09/10 02:44:09;;;;;;;142.80;50.22;;;12.80;99.90;;;;;;5075622;28;20077;-76
2022/09/10 02:46:37;;;;;;;137.73;48.92;;;12.80;99.90;;;;;;5057851;28;20055;-76
2022/09/10 02:49:05;;;;;;;136.25;50.95;;;12.90;99.90;;;;;;5056801;28;20047;-75
2022/09/10 02:51:37;;;;;;;133.05;49.25;;;12.80;99.90;;;;;;5057771;28;20475;-75
2022/09/10 02:54:07;;;;;;;142.50;51.35;;;12.70;99.90;;;;;;5056753;28;20044;-76
2022/09/10 02:56:35;;;;;;;140.43;49.10;;;12.70;99.90;;;;;;5057708;28;20037;-76
2022/09/10 02:59:03;;;;;;;147.40;51.97;;;12.70;99.90;;;;;;5057659;28;20044;-75
2022/09/10 03:01:33;;;;;;;;;;;12.60;99.90;;;;;;5057348;28;20466;-76
2022/09/10 03:04:04;;;;;;;160.43;52.78;;;12.70;99.90;;;;;;5057639;28;20278;-76
2022/09/10 03:06:32;;;;;;;142.82;52.67;;;12.70;99.90;;;;;;5057709;28;20036;-76
2022/09/10 03:09:00;;;;;;;175.95;56.67;;;12.80;99.90;;;;;;5074129;28;20049;-76
2022/09/10 03:11:28;;;;;;;180.77;60.78;;;12.80;99.90;;;;;;5075639;28;20067;-75
2022/09/10 03:13:58;;;;;;;169.30;59.85;;;12.80;99.90;;;;;;5074375;28;20510;-76
2022/09/10 03:16:26;;;;;;;152.77;56.95;;;13.00;99.90;;;;;;5041067;28;20075;-76
2022/09/10 03:18:54;;;;;;;172.15;61.58;;;13.10;99.90;;;;;;5041296;28;20060;-76
2022/09/10 03:21:23;;;;;;;172.65;60.30;;;13.20;99.90;;;;;;5056197;28;20064;-76
2022/09/10 03:23:52;;;;;;;154.27;57.17;;;13.20;99.90;;;;;;5057629;28;20165;-76
2022/09/10 03:26:24;;;;;;;173.52;61.50;;;13.30;99.90;;;;;;5057863;28;20057;-76
2022/09/10 03:28:53;;;;;;;182.30;63.70;;;13.40;99.90;;;;;;5056700;28;20363;-76
2022/09/10 03:31:25;;;;;;;194.45;65.57;;;13.40;99.90;;;;;;5057439;28;20056;-76
2022/09/10 03:33:53;;;;;;;181.80;64.25;;;13.50;99.90;;;;;;5056324;28;20052;-76
2022/09/10 03:36:21;;;;;;;182.15;63.05;;;13.40;99.90;;;;;;5024408;28;20053;-76
2022/09/10 03:38:49;;;;;;;189.77;66.57;;;13.50;99.90;;;;;;5057616;28;20379;-76
2022/09/10 03:41:17;;;;;;;193.82;67.97;;;13.50;99.90;;;;;;5056045;28;20045;-76
2022/09/10 03:43:46;;;;;;;194.60;67.80;;;13.60;99.90;;;;;;5040713;28;20049;-76
2022/09/10 03:46:14;;;;;;;175.32;63.30;;;13.60;99.90;;;;;;5071296;28;20056;-76
2022/09/10 03:48:44;;;;;;;165.35;58.90;;;13.60;99.90;;;;;;5035971;28;20052;-76
2022/09/10 03:51:12;;;;;;;;;;;13.70;99.90;;;;;;5037581;28;20464;-76
2022/09/10 03:53:40;;;;;;;147.77;53.50;;;13.70;99.90;;;;;;5035954;28;19927;-76
2022/09/10 03:56:12;;;;;;;180.27;59.67;;;13.70;99.90;;;;;;5021120;28;20044;-76
2022/09/10 03:58:40;;;;;;;147.15;54.60;;;13.70;99.90;;;;;;5037309;28;20127;-76
2022/09/10 04:01:09;;;;;;;157.25;57.05;;;13.70;99.90;;;;;;5035745;28;20060;-76
2022/09/10 04:03:41;;;;;;;144.93;54.15;;;13.70;99.90;;;;;;5036930;28;20045;-76
2022/09/10 04:06:09;;;;;;;155.18;57.33;;;13.70;99.90;;;;;;5036878;28;20383;-76
2022/09/10 04:08:38;;;;;;;147.93;54.85;;;13.80;99.90;;;;;;5035881;28;20045;-76
2022/09/10 04:11:08;;;;;;;151.27;53.45;;;13.80;99.90;;;;;;5037067;28;20472;-76
2022/09/10 04:13:36;;;;;;;144.50;52.40;;;13.80;99.90;;;;;;5035955;28;20064;-76
2022/09/10 04:16:04;;;;;;;145.73;53.35;;;13.80;99.90;;;;;;5036907;28;20355;-76
2022/09/10 04:18:33;;;;;;;156.63;54.15;;;13.80;99.90;;;;;;5020452;28;20054;-76
2022/09/10 04:21:02;;;;;;;155.23;55.60;;;13.80;99.90;;;;;;5053472;28;20397;-76
2022/09/10 04:23:31;;;;;;;132.93;48.28;;;13.80;99.90;;;;;;5037158;28;20045;-76
2022/09/10 04:26:09;;;;;;;140.48;53.30;;;13.80;99.90;;;;;;5036913;28;20049;-76
2022/09/10 04:28:37;;;;;;;136.32;51.22;;;13.80;99.90;;;;;;5035737;28;20108;-76
2022/09/10 04:31:04;;;;;;;141.43;52.65;;;13.90;99.90;;;;;;5054099;28;20049;-76
2022/09/10 04:33:33;;;;;;;145.32;54.20;;;13.90;99.90;;;;;;5036070;28;20048;-76
2022/09/10 04:36:02;;;;;;;126.28;52.53;;;13.90;99.90;;;;;;5036812;28;20561;-76
2022/09/10 04:38:31;;;;;;;155.52;56.00;;;13.90;99.90;;;;;;5036587;28;20037;-76
2022/09/10 04:41:00;;;;;;;156.73;54.70;;;13.90;99.90;;;;;;5035630;28;20037;-76
2022/09/10 04:43:28;;;;;;;138.35;52.35;;;13.90;99.90;;;;;;5037447;28;20049;-76
2022/09/10 04:45:57;;;;;;;128.68;50.65;;;13.90;99.90;;;;;;5037257;28;20053;-76
2022/09/10 04:48:25;;;;;;;127.85;49.78;;;14.00;99.90;;;;;;5055565;28;20471;-76
2022/09/10 04:50:54;;;;;;;125.22;50.83;;;13.90;99.90;;;;;;5056626;28;20053;-76
2022/09/10 04:53:44;;;;;;;126.72;49.75;;;13.90;99.90;;;;;;5043911;28;20059;-76
2022/09/10 04:56:12;;;;;;;148.13;52.72;;;14.00;99.90;;;;;;5060143;28;20041;-76
2022/09/10 04:58:39;;;;;;;130.52;51.08;;;14.00;99.90;;;;;;5060395;28;20048;-76
2022/09/10 05:01:08;;;;;;;;;;;13.90;99.90;;;;;;5076769;28;20383;-76
2022/09/10 05:03:36;;;;;;;141.85;51.50;;;14.00;99.90;;;;;;5059942;28;19928;-76
2022/09/10 05:06:06;;;;;;;135.27;49.85;;;13.90;99.90;;;;;;5059835;28;20115;-76
2022/09/10 05:08:34;;;;;;;;;;;13.90;99.90;;;;;;5059198;28;20037;-76
2022/09/10 05:11:01;;;;;;;141.60;51.80;;;13.90;99.90;;;;;;5077512;28;19920;-76
2022/09/10 05:13:30;;;;;;;130.60;52.40;;;13.90;99.90;;;;;;5058811;28;20041;-76
2022/09/10 05:15:59;;;;;;;123.65;49.97;;;13.90;99.90;;;;;;5059884;28;20041;-76
2022/09/10 05:18:27;;;;;;;137.60;51.72;;;13.90;99.90;;;;;;5059950;28;20040;-76
2022/09/10 05:20:56;;;;;;;141.20;52.72;;;13.90;99.90;;;;;;5058519;28;20455;-76
2022/09/10 05:23:24;;;;;;;122.38;49.75;;;13.90;99.90;;;;;;5060039;28;20040;-75
2022/09/10 05:25:53;;;;;;;130.38;49.75;;;14.00;99.90;;;;;;5043440;28;20455;-76
2022/09/10 05:28:21;;;;;;;135.85;49.80;;;14.00;99.90;;;;;;5058468;28;20068;-76
2022/09/10 05:30:49;;;;;;;128.63;49.97;;;14.00;99.90;;;;;;5042875;28;20375;-76
2022/09/10 05:33:21;;;;;;;109.57;47.55;;;14.00;99.90;;;;;;5059877;28;20451;-76
2022/09/10 05:35:52;;;;;;;103.43;46.30;;;14.00;99.90;;;;;;5059938;28;20055;-76
2022/09/10 05:38:22;;;;;;;130.80;49.53;;;14.00;99.90;;;;;;5043050;28;20459;-75
2022/09/10 05:40:51;;;;;;;135.02;50.72;;;14.00;99.90;;;;;;5058146;28;20044;-76
2022/09/10 05:43:19;;;;;;;115.38;47.22;;;14.20;99.90;;;;;;5059410;28;20052;-76
2022/09/10 05:45:48;;;;;;;121.15;49.25;;;14.00;99.90;;;;;;5059187;28;20055;-75
2022/09/10 05:48:16;;;;;;;121.38;49.70;;;14.00;99.90;;;;;;5041136;28;20044;-76
2022/09/10 05:50:46;;;;;;;;;;;14.00;99.90;;;;;;5059527;28;20052;-76
2022/09/10 05:53:14;;;;;;;113.43;46.10;;;14.00;99.90;;;;;;5059310;28;19920;-76
2022/09/10 05:55:43;;;;;;;128.88;49.13;;;14.10;99.90;;;;;;5075447;28;20040;-76
2022/09/10 05:58:12;;;;;;;132.10;48.83;;;14.10;99.90;;;;;;5026404;28;20049;-76
2022/09/10 06:00:44;;;;;;;112.05;46.92;;;14.10;99.90;;;;;;5058302;28;20475;-76
2022/09/10 06:03:13;;;;;;;111.38;46.00;;;14.10;99.90;;;;;;5059214;28;20355;-75
2022/09/10 06:05:51;;;;;;;114.28;47.15;;;14.00;99.90;;;;;;5042144;28;20056;-76
2022/09/10 06:08:27;;;;;;;95.82;44.65;;;14.10;99.90;;;;;;5042646;28;20044;-76
2022/09/10 06:11:05;;;;;;;119.88;48.05;;;14.20;99.90;;;;;;5076586;28;20049;-76
2022/09/10 06:13:41;;;;;;;115.47;45.88;;;14.20;99.90;;;;;;5009987;28;20049;-76
2022/09/10 06:16:08;;;;;;;101.40;45.50;;;14.20;99.90;;;;;;5059054;28;20044;-76
2022/09/10 06:18:37;;;;;;;113.30;45.28;;;14.20;99.90;;;;;;5041906;28;20052;-76
2022/09/10 06:21:16;;;;;;;110.13;46.33;;;14.20;99.90;;;;;;5057754;28;20040;-76
2022/09/10 06:23:51;;;;;;;105.10;45.28;;;14.20;99.90;;;;;;5058774;28;20052;-75
2022/09/10 06:26:18;;;;;;;91.78;43.42;;;14.20;99.90;;;;;;5058480;28;20044;-76
2022/09/10 06:28:51;;;;;;;86.65;41.45;;;14.30;99.90;;;;;;5057277;28;20067;-76
2022/09/10 06:31:19;;;;;;;96.32;43.70;;;14.30;99.90;;;;;;5042341;28;20049;-76
2022/09/10 06:33:49;;;;;;;85.88;41.85;;;14.30;99.90;;;;;;5040929;28;20049;-76
2022/09/10 06:36:20;;;;;;;96.93;44.60;;;14.30;99.90;;;;;;5076050;28;20402;-76
2022/09/10 06:38:50;;;;;;;91.90;44.03;;;14.30;99.90;;;;;;5058057;28;20382;-76
2022/09/10 06:41:18;;;;;;;95.75;43.95;;;14.30;99.90;;;;;;5056993;28;20374;-75
2022/09/10 06:43:51;;;;;;;106.43;46.33;;;14.30;99.90;;;;;;5057992;28;20052;-76
2022/09/10 06:46:29;;;;;;;95.65;45.30;;;14.30;99.90;;;;;;5057898;28;20060;-76
2022/09/10 06:49:20;;;;;;;94.90;43.83;;;14.40;99.90;;;;;;5057555;28;20051;-76
2022/09/10 06:51:50;;;;;;;;;;;14.40;99.90;;;;;;5058187;28;20056;-75
2022/09/10 06:54:18;;;;;;;93.90;44.67;;;14.50;99.90;;;;;;5074048;28;19921;-76
2022/09/10 06:56:48;;;;;;;98.78;47.13;;;14.50;99.90;;;;;;5041057;28;20052;-75
2022/09/10 06:59:17;;;;;;;95.85;45.28;;;14.50;99.90;;;;;;5041695;28;20063;-76
2022/09/10 07:01:48;;;;;;;94.15;45.72;;;14.60;99.90;;;;;;5056873;28;20045;-75
2022/09/10 07:04:17;;;;;;;85.80;43.05;;;14.60;99.90;;;;;;5057562;28;20044;-75
2022/09/10 07:06:46;;;;;;;90.57;43.00;;;14.60;99.90;;;;;;5056485;28;20055;-76
2022/09/10 07:09:15;;;;;;;78.78;39.53;;;14.70;99.90;;;;;;5058172;28;20051;-75
2022/09/10 07:11:58;;;;;;;74.20;39.03;;;14.70;99.90;;;;;;5075474;28;20048;-75
2022/09/10 07:14:28;;;;;;;77.85;39.15;;;16.20;99.90;;;;;;5073890;28;20044;-73
2022/09/10 07:16:57;;;;;;;76.60;37.78;;;14.70;99.90;;;;;;5024223;28;20044;-75
2022/09/10 07:19:28;;;;;;;74.43;37.88;;;14.70;99.90;;;;;;5058381;28;20067;-75
2022/09/10 07:21:56;;;;;;;77.13;40.78;;;14.80;99.90;;;;;;5073189;28;20060;-75
2022/09/10 07:24:24;;;;;;;75.70;39.35;;;14.90;99.90;;;;;;5057827;28;20048;-75
2022/09/10 07:26:59;;;;;;;74.00;37.90;;;14.90;99.90;;;;;;5056299;28;20040;-75
2022/09/10 07:29:30;;;;;;;81.25;38.17;;;14.90;99.90;;;;;;5057145;28;20044;-75
2022/09/10 07:31:59;;;;;;;77.38;38.88;;;14.90;99.90;;;;;;5057212;28;20494;-75
2022/09/10 07:34:26;;;;;;;74.25;37.83;;;15.00;99.90;;;;;;5039719;28;20403;-75
2022/09/10 07:36:56;;;;;;;64.10;36.05;;;15.00;99.90;;;;;;5056549;28;20044;-74
2022/09/10 07:39:25;;;;;;;72.38;36.10;;;15.00;99.90;;;;;;5056924;28;20051;-75
2022/09/10 07:41:55;;;;;;;74.15;38.13;;;15.10;99.90;;;;;;5055877;28;20044;-75
2022/09/10 07:44:26;;;;;;;64.22;35.22;;;15.10;99.90;;;;;;5056895;28;20478;-76
2022/09/10 07:46:58;;;;;;;66.53;34.67;;;15.20;99.90;;;;;;5055573;28;20053;-76
2022/09/10 07:49:26;;;;;;;64.32;35.17;;;15.20;99.90;;;;;;5040335;28;20051;-75
2022/09/10 07:51:54;;;;;;;64.10;34.15;;;15.30;99.90;;;;;;5056766;28;20049;-74
2022/09/10 07:54:31;;;;;;;59.25;33.90;;;15.30;99.90;;;;;;5055567;28;20032;-74
2022/09/10 07:56:59;;;;;;;62.13;33.13;;;15.40;99.90;;;;;;5056781;28;20051;-76
2022/09/10 07:59:27;;;;;;;65.82;33.58;;;15.50;99.90;;;;;;5056667;28;20052;-75
2022/09/10 08:02:00;;;;;;;53.47;30.73;;;15.60;99.90;;;;;;5055818;28;20371;-75
2022/09/10 08:04:30;;;;;;;55.95;33.17;;;15.60;99.90;;;;;;5039835;28;20053;-73
2022/09/10 08:07:06;;;;;;;64.93;34.03;;;15.60;99.90;;;;;;5055557;28;20063;-74
2022/09/10 08:09:38;;;;;;;64.22;34.92;;;15.60;99.90;;;;;;5056754;28;20036;-75
2022/09/10 08:12:08;;;;;;;57.95;31.70;;;15.60;99.90;;;;;;5056829;28;20051;-76
2022/09/10 08:14:38;;;;;;;55.70;32.15;;;15.60;99.90;;;;;;5073105;28;20048;-76
2022/09/10 08:17:07;;;;;;;54.65;31.80;;;15.70;99.90;;;;;;5056678;28;20374;-74
2022/09/10 08:19:39;;;;;;;56.15;32.28;;;15.70;99.90;;;;;;5056377;28;20351;-76
2022/09/10 08:22:07;;;;;;;64.15;33.78;;;15.60;99.90;;;;;;5055501;28;20037;-75
2022/09/10 08:24:46;;;;;;;64.00;35.22;;;15.60;99.90;;;;;;5056789;28;20044;-75
2022/09/10 08:27:15;;;;;;;56.72;32.97;;;15.50;99.90;;;;;;5022538;28;20049;-75
2022/09/10 08:29:43;;;;;;;62.38;35.08;;;15.50;99.90;;;;;;5060097;28;20045;-75
2022/09/10 08:32:12;;;;;;;;;;;15.50;99.90;;;;;;5060349;28;20044;-75
2022/09/10 08:34:40;;;;;;;56.35;31.75;;;15.60;99.90;;;;;;5059754;28;19920;-76
2022/09/10 08:37:15;;;;;;;52.28;30.85;;;15.70;99.90;;;;;;5060414;28;20048;-76
2022/09/10 08:39:43;;;;;;;48.60;30.60;;;15.70;99.90;;;;;;5061020;28;20051;-76
2022/09/10 08:42:21;;;;;;;63.38;33.90;;;15.70;99.90;;;;;;5059682;28;20044;-76
2022/09/10 08:44:54;;;;;;;67.47;35.70;;;15.70;99.90;;;;;;5060568;28;20449;-76
2022/09/10 08:47:36;;;;;;;57.63;33.90;;;15.70;99.90;;;;;;5059342;28;20049;-75
2022/09/10 08:50:12;;;;;;;55.97;31.48;;;15.90;99.90;;;;;;5060328;28;20056;-74
2022/09/10 08:52:49;;;;;;;47.42;29.65;;;16.10;99.90;;;;;;5060413;28;20051;-75
2022/09/10 08:55:28;;;;;;;45.28;27.98;;;16.20;99.90;;;;;;5043578;28;20041;-74
2022/09/10 08:58:13;;;;;;;50.95;29.48;;;16.40;99.90;;;;;;5060564;28;20367;-78
2022/09/10 09:00:44;;;;;;;45.55;28.42;;;16.30;99.90;;;;;;5059375;28;20463;-75
2022/09/10 09:03:44;;;;;;;46.63;27.02;;;16.40;99.90;;;;;;5060225;28;20063;-75
2022/09/10 09:06:43;;;;;;;43.43;25.77;;;16.50;99.90;;;;;;5074694;28;20451;-76
2022/09/10 09:09:12;;;;;;;46.95;25.33;;;16.50;99.90;;;;;;5060145;28;20296;-78
2022/09/10 09:12:07;;;;;;;41.05;25.58;;;16.60;99.90;;;;;;5043120;28;20048;-76
2022/09/10 09:14:47;;;;;;;43.97;24.15;;;16.60;99.90;;;;;;5059079;28;20458;-76
2022/09/10 09:17:32;;;;;;;38.00;23.40;;;16.70;99.90;;;;;;5059585;28;20055;-77
2022/09/10 09:20:16;;;;;;;45.08;24.45;;;16.50;99.90;;;;;;5059884;28;20047;-77
2022/09/10 09:22:55;;;;;;;41.25;25.77;;;16.50;99.90;;;;;;5059881;28;20485;-77
2022/09/10 09:25:45;;;;;;;39.15;22.85;;;16.90;99.90;;;;;;5059909;28;20402;-78
2022/09/10 09:28:22;;;;;;;34.25;20.92;;;16.40;99.90;;;;;;5058741;28;20040;-77
2022/09/10 09:30:52;;;;;;;36.08;20.85;;;16.40;99.90;;;;;;5059587;28;20371;-77
2022/09/10 09:33:24;;;;;;;33.55;18.48;;;16.60;99.90;;;;;;5059257;28;20036;-75
2022/09/10 09:36:00;;;;;;;29.88;16.50;;;16.80;99.90;;;;;;5060174;28;20055;-76
2022/09/10 09:38:40;;;;;;;26.38;16.77;;;17.10;99.90;;;;;;5059380;28;20047;-77
2022/09/10 09:41:23;;;;;;;23.13;14.32;;;17.20;99.90;;;;;;5058639;28;20465;-76
2022/09/10 09:43:54;;;;;;;23.88;14.35;;;17.50;99.90;;;;;;5060040;28;20036;-76
2022/09/10 09:46:25;;;;;;;31.38;16.75;;;17.40;99.90;;;;;;5042644;28;20056;-76
2022/09/10 09:48:58;;;;;;;32.80;18.35;;;17.50;99.90;;;;;;5058056;28;20056;-66
2022/09/10 09:51:34;;;;;;;27.77;16.48;;;17.60;99.90;;;;;;5042673;28;20052;-77
2022/09/10 09:54:10;;;;;;;26.77;15.90;;;17.70;99.90;;;;;;5041373;28;20064;-76
2022/09/10 09:56:58;;;;;;;26.85;16.95;;;17.80;99.90;;;;;;5059186;28;20052;-76
2022/09/10 09:59:33;;;;;;;26.95;15.80;;;18.10;99.90;;;;;;5076516;28;20059;-76
2022/09/10 10:02:16;;;;;;;29.67;16.33;;;18.20;99.90;;;;;;5075547;28;20048;-76
2022/09/10 10:04:54;;;;;;;25.23;15.43;;;18.30;99.90;;;;;;5058943;28;20071;-76
2022/09/10 10:07:31;;;;;;;;;;;18.40;99.90;;;;;;5076088;28;20451;-77
2022/09/10 10:10:00;;;;;;;22.45;14.48;;;18.60;99.90;;;;;;5076892;28;20250;-77
2022/09/10 10:12:32;;;;;;;24.60;15.07;;;18.50;99.90;;;;;;5076005;28;20520;-78
2022/09/10 10:15:01;;;;;;;20.38;14.25;;;18.50;99.90;;;;;;5074072;28;20055;-77
2022/09/10 10:17:38;;;;;;;24.60;14.95;;;18.50;99.90;;;;;;5074900;28;20049;-76
2022/09/10 10:20:15;;;;;;;24.05;15.13;;;18.40;99.90;;;;;;5074896;28;20041;-76
2022/09/10 10:22:47;;;;;;;23.02;14.55;;;18.40;99.90;;;;;;5059203;28;20466;-76
2022/09/10 10:25:37;;;;;;;26.58;13.57;;;18.50;99.90;;;;;;5075744;28;20052;-75
2022/09/10 10:28:24;;;;;;;26.20;14.00;;;18.80;99.90;;;;;;5057422;28;20382;-77
2022/09/10 10:30:54;;;;;;;24.00;12.93;;;18.90;99.90;;;;;;5058208;28;20053;-75
2022/09/10 10:33:32;;;;;;;24.48;12.40;;;19.20;99.90;;;;;;5075832;28;20386;-76
2022/09/10 10:36:42;;;;;;;21.95;11.93;;;19.30;99.90;;;;;;5075789;28;20055;-76
2022/09/10 10:39:59;;;;;;;20.48;10.45;;;19.40;99.90;;;;;;5026006;28;20058;-75
2022/09/10 10:42:38;;;;;;;23.15;10.95;;;19.60;99.90;;;;;;5074634;28;20045;-77
2022/09/10 10:45:26;;;;;;;17.40;9.50;;;19.60;99.90;;;;;;5057965;28;20048;-75
2022/09/10 10:48:02;;;;;;;22.40;10.80;;;19.70;99.90;;;;;;5074623;28;20386;-76
2022/09/10 10:50:57;;;;;;;23.92;11.40;;;19.70;99.90;;;;;;5074836;28;20361;-77
2022/09/10 10:53:43;;;;;;;18.38;8.50;;;17.80;99.90;;;;;;5074175;28;20044;-77
2022/09/10 10:56:31;;;;;;;17.70;8.40;;;19.70;99.90;;;;;;5074814;28;20462;-78
2022/09/10 10:59:12;;;;;;;17.02;9.10;;;19.80;99.90;;;;;;5075582;28;20048;-78
2022/09/10 11:01:56;;;;;;;17.73;9.02;;;19.90;99.90;;;;;;5056573;28;20048;-76
2022/09/10 11:04:47;;;;;;;18.17;8.50;;;20.10;99.90;;;;;;5057697;28;20055;-78
2022/09/10 11:07:38;;;;;;;16.23;7.55;;;20.10;99.90;;;;;;5073962;28;20463;-76
2022/09/10 11:10:48;;;;;;;18.02;8.23;;;20.10;99.90;;;;;;5057249;28;20067;-75
2022/09/10 11:13:50;;;;;;;17.95;7.90;;;20.00;99.90;;;;;;5062522;28;20052;-76
2022/09/10 11:16:40;;;;;;;15.57;7.25;;;19.90;99.90;;;;;;4990773;28;20075;-77
2022/09/10 11:19:15;;;;;;;17.42;7.03;;;19.80;99.90;;;;;;5058093;28;20075;-78
2022/09/10 11:21:52;;;;;;;10.43;4.53;;;19.90;99.90;;;;;;5074137;28;20063;-79
2022/09/10 11:24:25;;;;;;;11.65;4.80;;;19.90;99.90;;;;;;5075382;28;20060;-77
2022/09/10 11:27:10;;;;;;;13.70;4.10;;;18.90;99.90;;;;;;5055715;28;20154;-77
2022/09/10 11:30:05;;;;;;;11.15;4.03;;;20.20;99.90;;;;;;5075093;28;20452;-80
2022/09/10 11:33:03;;;;;;;13.85;4.22;;;20.20;99.90;;;;;;5058161;28;20036;-79
2022/09/10 11:35:47;;;;;;;10.38;3.42;;;20.10;99.90;;;;;;5068614;28;20048;-77
2022/09/10 11:38:40;;;;;;;10.88;3.30;;;20.20;99.90;;;;;;5073893;28;20064;-77
2022/09/10 11:41:21;;;;;;;10.63;3.53;;;21.60;99.90;;;;;;5039945;28;20049;-79
2022/09/10 11:44:09;;;;;;;12.07;3.85;;;20.00;99.90;;;;;;5075038;28;20053;-78
2022/09/10 11:46:43;;;;;;;13.70;3.80;;;20.10;99.90;;;;;;5057682;28;20044;-78
2022/09/10 11:49:21;;;;;;;13.57;3.55;;;20.10;99.90;;;;;;5042078;28;20056;-78
2022/09/10 11:51:50;;;;;;;13.27;3.55;;;20.10;99.90;;;;;;5040954;28;20044;-78
2022/09/10 11:54:27;;;;;;;11.00;3.50;;;20.20;99.90;;;;;;5056264;28;20047;-77
2022/09/10 11:57:13;;;;;;;11.40;3.60;;;20.20;99.90;;;;;;5074770;28;20048;-75
2022/09/10 12:00:06;;;;;;;9.10;3.50;;;20.30;99.90;;;;;;5057092;28;20053;-76
2022/09/10 12:03:12;;;;;;;14.07;3.80;;;20.30;99.90;;;;;;5058899;28;20048;-73
2022/09/10 12:06:12;;;;;;;13.27;3.70;;;20.30;99.90;;;;;;5078939;28;20044;-73
2022/09/10 12:09:27;;;;;;;11.55;3.20;;;20.20;99.90;;;;;;5059935;28;20059;-74
2022/09/10 12:12:02;;;;;;;12.43;3.20;;;20.20;99.90;;;;;;5024720;28;20055;-74
2022/09/10 12:14:30;;;;;;;10.45;3.15;;;20.20;99.90;;;;;;5078099;28;20041;-74
2022/09/10 12:17:14;;;;;;;10.52;3.30;;;20.20;99.90;;;;;;5078783;28;20439;-74
2022/09/10 12:19:54;;;;;;;10.43;2.88;;;20.10;99.90;;;;;;5061195;28;20044;-75
2022/09/10 12:22:32;;;;;;;9.55;2.90;;;20.10;99.90;;;;;;5077354;28;20056;-76
2022/09/10 12:25:17;;;;;;;13.20;3.08;;;20.00;99.90;;;;;;5078901;28;20063;-74
2022/09/10 12:27:50;;;;;;;9.95;2.60;;;19.80;99.90;;;;;;5060037;28;20044;-74
2022/09/10 12:30:26;;;;;;;6.40;1.85;;;19.70;99.90;;;;;;5044688;28;20067;-74
2022/09/10 12:32:59;;;;;;;7.07;2.28;;;19.60;99.90;;;;;;5061217;28;20051;-75
2022/09/10 12:35:36;;;;;;;7.85;1.98;;;19.70;99.90;;;;;;5043487;28;20056;-74
2022/09/10 12:38:42;;;;;;;13.85;3.40;;;19.60;99.90;;;;;;5078538;28;20048;-74
2022/09/10 12:41:31;;;;;;;12.18;2.78;;;19.60;99.90;;;;;;5077323;28;20041;-74
2022/09/10 12:44:00;;;;;;;8.10;3.00;;;19.60;99.90;;;;;;5077799;28;20045;-74
2022/09/10 12:46:30;;;;;;;10.77;3.47;;;19.70;99.90;;;;;;5077448;28;20053;-73
2022/09/10 12:49:00;;;;;;;11.75;3.85;;;19.80;99.90;;;;;;5059457;28;20064;-74
2022/09/10 12:51:40;;;;;;;12.10;3.63;;;19.80;99.90;;;;;;5078446;28;20045;-74
2022/09/10 12:54:45;;;;;;;11.15;3.17;;;19.90;99.90;;;;;;5076863;28;20045;-74
2022/09/10 12:57:30;;;;;;;11.40;3.83;;;19.90;99.90;;;;;;5077716;28;20041;-74
2022/09/10 13:00:16;;;;;;;8.38;2.63;;;20.10;99.90;;;;;;5078229;28;20044;-74
2022/09/10 13:02:53;;;;;;;7.30;2.53;;;20.20;99.90;;;;;;5060518;28;20112;-75
2022/09/10 13:05:59;;;;;;;10.27;3.45;;;20.20;99.90;;;;;;5060525;28;20040;-74
2022/09/10 13:08:46;;;;;;;9.63;2.95;;;20.20;99.90;;;;;;4976046;28;20047;-73